createdAt,value
2023-03-24T00:02:52.416Z,9.53
2023-03-24T00:06:57.783Z,9.50
2023-03-24T00:10:47.612Z,9.47
2023-03-24T00:14:36.757Z,9.53
2023-03-24T00:18:26.855Z,9.54
2023-03-24T00:22:35.817Z,9.48
2023-03-24T00:26:25.776Z,9.46
2023-03-24T00:30:15.721Z,9.42
2023-03-24T00:34:09.017Z,9.31
2023-03-24T00:37:58.677Z,9.17
2023-03-24T00:41:49.697Z,9.07
2023-03-24T00:45:39.590Z,9.00
2023-03-24T00:49:30.423Z,8.94
2023-03-24T00:53:34.754Z,8.98
2023-03-24T00:57:23.777Z,8.92
2023-03-24T01:01:12.888Z,8.88
2023-03-24T01:05:02.081Z,8.94
2023-03-24T01:08:51.255Z,8.95
2023-03-24T01:12:41.298Z,9.06
2023-03-24T01:16:31.729Z,9.10
2023-03-24T01:20:21.265Z,9.20
2023-03-24T01:24:11.481Z,9.23
2023-03-24T01:28:00.263Z,9.32
2023-03-24T01:31:50.104Z,9.42
2023-03-24T01:35:40.708Z,9.52
2023-03-24T01:39:30.027Z,9.60
2023-03-24T01:43:20.002Z,9.65
2023-03-24T01:47:18.746Z,9.69
2023-03-24T01:51:09.222Z,9.55
2023-03-24T01:55:14.275Z,9.58
2023-03-24T01:59:06.124Z,9.44
2023-03-24T02:03:01.664Z,9.29
2023-03-24T02:06:52.891Z,9.19
2023-03-24T02:10:44.862Z,9.14
2023-03-24T02:14:34.329Z,9.03
2023-03-24T02:18:30.979Z,9.10
2023-03-24T02:22:44.691Z,9.05
2023-03-24T02:26:35.225Z,9.15
2023-03-24T02:30:34.658Z,9.28
2023-03-24T02:34:45.705Z,9.30
2023-03-24T02:39:03.337Z,9.25
2023-03-24T02:43:08.586Z,9.22
2023-03-24T02:47:03.889Z,9.00
2023-03-24T02:50:56.155Z,8.97
2023-03-24T02:54:47.975Z,9.08
2023-03-24T02:58:38.911Z,9.21
2023-03-24T03:02:28.068Z,9.33
2023-03-24T03:06:20.609Z,9.40
2023-03-24T03:10:13.930Z,9.30
2023-03-24T03:14:03.399Z,9.15
2023-03-24T03:17:53.379Z,9.10
2023-03-24T03:21:42.735Z,9.18
2023-03-24T03:25:33.443Z,9.23
2023-03-24T03:29:22.862Z,9.19
2023-03-24T03:33:18.883Z,9.32
2023-03-24T03:37:29.190Z,9.25
2023-03-24T03:41:18.508Z,9.14
2023-03-24T03:45:07.535Z,9.14
2023-03-24T03:48:57.643Z,9.00
2023-03-24T03:52:48.281Z,8.89
2023-03-24T03:56:39.964Z,8.86
2023-03-24T04:00:32.424Z,8.70
2023-03-24T04:04:27.358Z,8.91
2023-03-24T04:08:50.417Z,9.14
2023-03-24T04:13:08.413Z,9.39
2023-03-24T04:17:01.046Z,9.52
2023-03-24T04:20:51.290Z,9.42
2023-03-24T04:24:58.800Z,9.21
2023-03-24T04:28:52.221Z,9.03
2023-03-24T04:32:51.130Z,9.02
2023-03-24T04:36:46.102Z,9.10
2023-03-24T04:40:38.466Z,9.34
2023-03-24T04:44:27.818Z,9.55
2023-03-24T04:48:17.269Z,9.72
2023-03-24T04:52:12.437Z,9.61
2023-03-24T04:56:16.995Z,9.46
2023-03-24T05:00:14.925Z,9.67
2023-03-24T05:04:06.944Z,9.80
2023-03-24T05:07:57.635Z,9.98
2023-03-24T05:11:51.585Z,10.17
2023-03-24T05:15:42.526Z,10.33
2023-03-24T05:19:35.242Z,10.45
2023-03-24T05:23:25.232Z,10.50
2023-03-24T05:27:35.212Z,10.54
2023-03-24T05:31:26.934Z,10.68
2023-03-24T05:35:19.463Z,10.81
2023-03-24T05:39:08.920Z,10.92
2023-03-24T05:43:02.862Z,11.03
2023-03-24T05:46:52.747Z,11.20
2023-03-24T05:50:43.372Z,11.36
2023-03-24T05:54:36.669Z,11.48
2023-03-24T05:58:27.891Z,11.60
2023-03-24T06:02:19.761Z,11.82
2023-03-24T06:06:08.983Z,11.92
2023-03-24T06:09:58.444Z,12.01
2023-03-24T06:13:48.637Z,12.20
2023-03-24T06:17:42.273Z,12.33
2023-03-24T06:21:35.305Z,12.43
2023-03-24T06:25:28.353Z,12.51
2023-03-24T06:29:24.314Z,12.58
2023-03-24T06:33:13.645Z,12.69
2023-03-24T06:37:06.889Z,12.68
2023-03-24T06:40:56.204Z,12.76
2023-03-24T06:44:58.869Z,12.97
2023-03-24T06:48:49.303Z,13.02
2023-03-24T06:52:43.116Z,12.93
2023-03-24T06:56:52.879Z,13.03
2023-03-24T07:00:46.889Z,13.11
2023-03-24T07:04:45.477Z,13.07
2023-03-24T07:08:40.375Z,13.16
2023-03-24T07:12:30.264Z,13.19
2023-03-24T07:16:20.026Z,13.31
2023-03-24T07:20:10.697Z,13.24
2023-03-24T07:24:07.368Z,13.25
2023-03-24T07:28:03.722Z,13.13
2023-03-24T07:31:54.323Z,13.20
2023-03-24T07:35:46.335Z,13.25
2023-03-24T07:39:36.712Z,13.36
2023-03-24T07:43:26.945Z,13.46
2023-03-24T07:47:29.350Z,13.50
2023-03-24T07:51:19.343Z,13.54
2023-03-24T07:55:16.390Z,13.54
2023-03-24T07:59:19.873Z,13.57
2023-03-24T08:03:18.898Z,13.72
2023-03-24T08:07:09.493Z,13.96
2023-03-24T08:10:58.920Z,14.05
2023-03-24T08:14:50.141Z,14.19
2023-03-24T08:18:39.634Z,14.34
2023-03-24T08:22:27.821Z,14.56
2023-03-24T08:26:18.461Z,14.68
2023-03-24T08:30:15.533Z,14.74
2023-03-24T08:34:06.076Z,14.87
2023-03-24T08:37:56.419Z,15.14
2023-03-24T08:41:52.471Z,15.35
2023-03-24T08:46:01.965Z,15.50
2023-03-24T08:49:51.385Z,15.66
2023-03-24T08:53:40.962Z,15.83
2023-03-24T08:57:33.403Z,15.73
2023-03-24T09:01:23.866Z,15.74
2023-03-24T09:05:15.348Z,15.82
2023-03-24T09:09:04.678Z,15.96
2023-03-24T09:12:57.828Z,16.28
2023-03-24T09:16:47.390Z,16.66
2023-03-24T09:21:16.938Z,16.96
2023-03-24T09:25:06.200Z,17.27
2023-03-24T09:28:56.550Z,17.70
2023-03-24T09:33:06.588Z,17.91
2023-03-24T09:36:56.989Z,18.12
2023-03-24T09:40:57.333Z,18.38
2023-03-24T09:44:58.204Z,18.41
2023-03-24T09:48:49.651Z,18.51
2023-03-24T09:52:54.110Z,18.32
2023-03-24T09:57:04.259Z,18.47
2023-03-24T10:01:21.937Z,18.43
2023-03-24T10:05:16.798Z,18.20
2023-03-24T10:09:12.498Z,17.97
2023-03-24T10:13:16.039Z,17.79
2023-03-24T10:17:11.813Z,17.74
2023-03-24T10:21:32.998Z,17.47
2023-03-24T10:25:26.650Z,17.38
2023-03-24T10:29:55.679Z,17.10
2023-03-24T10:34:24.687Z,16.88
2023-03-24T10:44:05.701Z,16.87
2023-03-24T10:47:09.248Z,16.83
2023-03-24T10:50:44.993Z,16.99
2023-03-24T10:54:22.178Z,17.15
2023-03-24T10:57:52.459Z,17.27
2023-03-24T11:01:11.199Z,17.28
2023-03-24T11:04:22.323Z,17.26
2023-03-24T11:07:54.270Z,17.32
2023-03-24T11:11:33.935Z,17.34
2023-03-24T11:14:57.136Z,17.31
2023-03-24T11:18:50.356Z,17.33
2023-03-24T11:21:50.832Z,17.44
2023-03-24T11:24:57.830Z,17.72
2023-03-24T11:28:00.286Z,18.06
2023-03-24T11:30:55.820Z,18.52
2023-03-24T11:34:37.011Z,18.88
2023-03-24T11:38:20.614Z,18.84
2023-03-24T11:41:51.980Z,18.71
2023-03-24T11:45:10.249Z,18.71
2023-03-24T11:48:51.974Z,18.81
2023-03-24T11:51:57.471Z,18.71
2023-03-24T11:55:45.391Z,18.71
2023-03-24T11:59:32.882Z,18.47
2023-03-24T12:03:29.256Z,18.76
2023-03-24T12:06:38.214Z,18.99
2023-03-24T12:09:57.767Z,19.37
2023-03-24T12:13:37.221Z,19.38
2023-03-24T12:17:34.729Z,19.45
2023-03-24T12:20:29.801Z,19.74
2023-03-24T12:24:00.784Z,20.12
2023-03-24T12:27:25.831Z,20.51
2023-03-24T12:31:01.014Z,20.74
2023-03-24T12:34:53.484Z,20.78
2023-03-24T12:38:39.141Z,20.83
2023-03-24T12:42:29.261Z,20.89
2023-03-24T12:46:07.888Z,20.91
2023-03-24T12:49:56.205Z,20.85
2023-03-24T12:53:31.945Z,20.97
2023-03-24T12:57:40.535Z,20.96
2023-03-24T13:01:28.238Z,20.70
2023-03-24T13:04:58.110Z,20.42
2023-03-24T13:08:28.864Z,20.37
2023-03-24T13:12:08.615Z,20.50
2023-03-24T13:15:44.919Z,20.54
2023-03-24T13:19:13.251Z,20.39
2023-03-24T13:22:27.034Z,20.13
2023-03-24T13:26:17.411Z,19.97
2023-03-24T13:29:56.054Z,19.64
2023-03-24T13:33:27.261Z,19.50
2023-03-24T13:36:46.073Z,19.47
2023-03-24T13:40:03.963Z,19.38
2023-03-24T13:43:24.157Z,19.20
2023-03-24T13:46:24.608Z,19.12
2023-03-24T13:49:23.974Z,19.09
2023-03-24T13:52:37.315Z,19.03
2023-03-24T13:56:07.137Z,18.98
2023-03-24T14:00:03.239Z,18.96
2023-03-24T14:03:32.292Z,19.01
2023-03-24T14:06:56.719Z,19.12
2023-03-24T14:10:22.781Z,19.23
2023-03-24T14:14:04.496Z,19.35
2023-03-24T14:17:28.063Z,19.55
2023-03-24T14:21:09.844Z,19.55
2023-03-24T14:24:55.258Z,19.54
2023-03-24T14:28:45.756Z,19.28
2023-03-24T14:32:17.153Z,19.28
2023-03-24T14:35:43.086Z,19.27
2023-03-24T14:39:23.250Z,19.13
2023-03-24T14:42:49.561Z,19.06
2023-03-24T14:45:59.401Z,19.05
2023-03-24T14:49:16.637Z,19.05
2023-03-24T14:53:06.920Z,19.04
2023-03-24T14:56:54.824Z,18.96
2023-03-24T15:00:27.966Z,18.87
2023-03-24T15:03:53.426Z,18.77
2023-03-24T15:07:24.797Z,18.66
2023-03-24T15:10:58.160Z,18.66
2023-03-24T15:14:23.878Z,18.63
2023-03-24T15:17:45.035Z,18.64
2023-03-24T15:20:40.130Z,18.51
2023-03-24T15:23:48.949Z,18.44
2023-03-24T15:27:17.193Z,18.35
2023-03-24T15:30:20.993Z,17.20
2023-03-24T15:33:30.724Z,16.69
2023-03-24T15:36:26.751Z,16.34
2023-03-24T15:39:00.167Z,16.22
2023-03-24T15:42:08.388Z,15.42
2023-03-24T15:44:45.345Z,14.97
2023-03-24T15:47:55.983Z,14.91
2023-03-24T15:50:31.880Z,15.00
2023-03-24T15:53:33.893Z,15.08
2023-03-24T15:57:20.506Z,15.04
2023-03-24T16:00:24.307Z,14.81
2023-03-24T16:03:46.393Z,14.47
2023-03-24T16:07:30.203Z,14.42
2023-03-24T16:25:10.553Z,13.77
2023-03-24T16:28:05.476Z,13.71
2023-03-24T16:30:56.319Z,13.69
2023-03-24T16:34:09.884Z,13.71
2023-03-24T16:37:35.543Z,13.70
2023-03-24T16:40:34.684Z,13.69
2023-03-24T16:43:39.423Z,13.59
2023-03-24T16:46:48.879Z,13.57
2023-03-24T16:50:06.938Z,13.45
2023-03-24T16:53:18.444Z,13.42
2023-03-24T16:57:08.549Z,13.42
2023-03-24T17:00:48.134Z,13.22
2023-03-24T17:04:37.925Z,13.01
2023-03-24T17:08:10.620Z,12.82
2023-03-24T17:11:02.812Z,12.86
2023-03-24T17:14:31.592Z,12.85
2023-03-24T17:18:14.115Z,12.75
2023-03-24T17:21:51.395Z,12.56
2023-03-24T17:25:35.425Z,12.48
2023-03-24T17:29:26.004Z,12.35
2023-03-24T17:33:11.257Z,12.22
2023-03-24T17:36:11.344Z,12.24
2023-03-24T17:39:44.827Z,12.17
2023-03-24T17:43:13.873Z,12.11
2023-03-24T17:46:47.239Z,12.20
2023-03-24T17:50:09.903Z,12.15
2023-03-24T17:53:28.693Z,12.08
2023-03-24T17:57:08.591Z,12.14
2023-03-24T18:00:37.867Z,12.07
2023-03-24T18:04:20.980Z,12.00
2023-03-24T18:07:22.078Z,11.91
2023-03-24T18:10:52.002Z,11.96
2023-03-24T18:14:37.633Z,11.87
2023-03-24T18:17:42.392Z,11.79
2023-03-24T18:21:11.490Z,11.80
2023-03-24T18:25:03.212Z,11.84
2023-03-24T18:28:34.366Z,11.86
2023-03-24T18:31:45.695Z,11.87
2023-03-24T18:34:44.579Z,11.77
2023-03-24T18:37:59.356Z,11.74
2023-03-24T18:41:39.371Z,11.76
2023-03-24T18:45:05.278Z,11.71
2023-03-24T18:48:34.170Z,11.55
2023-03-24T18:52:09.205Z,11.47
2023-03-24T18:55:33.350Z,11.30
2023-03-24T18:59:12.046Z,11.33
2023-03-24T19:02:51.649Z,11.27
2023-03-24T19:06:41.391Z,11.12
2023-03-24T19:09:23.942Z,11.06
2023-03-24T19:12:53.720Z,11.04
2023-03-24T19:16:09.154Z,10.94
2023-03-24T19:19:02.013Z,10.93
2023-03-24T19:22:18.139Z,10.93
2023-03-24T19:25:19.020Z,10.89
2023-03-24T19:28:06.016Z,10.88
2023-03-24T19:30:59.066Z,10.89
2023-03-24T19:33:33.415Z,10.84
2023-03-24T19:36:51.777Z,10.78
2023-03-24T19:39:53.467Z,10.70
2023-03-24T19:42:50.666Z,10.71
2023-03-24T19:46:23.574Z,10.70
2023-03-24T19:49:24.072Z,10.63
2023-03-24T19:52:03.103Z,10.54
2023-03-24T19:54:42.950Z,10.52
2023-03-24T19:57:19.415Z,10.53
2023-03-24T19:59:49.721Z,10.51
2023-03-24T20:02:19.722Z,10.52
2023-03-24T20:04:57.006Z,10.54
2023-03-24T20:08:30.412Z,10.54
2023-03-24T20:11:00.772Z,10.61
2023-03-24T20:13:34.425Z,10.66
2023-03-24T20:16:04.679Z,10.67
2023-03-24T20:18:39.427Z,10.64
2023-03-24T20:21:16.553Z,10.62
2023-03-24T20:23:55.519Z,10.73
2023-03-24T20:27:14.718Z,10.75
2023-03-24T20:30:07.159Z,10.64
2023-03-24T20:32:38.616Z,10.72
2023-03-24T20:36:12.567Z,10.64
2023-03-24T20:38:47.533Z,10.54
2023-03-24T20:42:03.052Z,10.41
2023-03-24T20:45:02.596Z,10.37
2023-03-24T20:47:45.645Z,10.33
2023-03-24T20:50:16.887Z,10.34
2023-03-24T20:53:11.937Z,10.41
2023-03-24T20:56:18.295Z,10.37
2023-03-24T20:58:58.142Z,10.36
2023-03-24T21:01:48.587Z,10.38
2023-03-24T21:04:29.534Z,10.38
2023-03-24T21:07:07.363Z,10.42
2023-03-24T21:09:39.944Z,10.41
2023-03-24T21:13:12.317Z,10.36
2023-03-24T21:17:00.903Z,10.26
2023-03-24T21:20:15.374Z,10.15
2023-03-24T21:23:23.392Z,10.15
2023-03-24T21:27:01.426Z,10.05
2023-03-24T21:30:10.906Z,9.97
2023-03-24T21:33:44.780Z,9.89
2023-03-24T21:36:54.306Z,9.91
2023-03-24T21:40:21.335Z,9.82
2023-03-24T21:43:46.262Z,9.81
2023-03-24T21:46:50.749Z,9.73
2023-03-24T21:49:53.859Z,9.69
2023-03-24T21:53:29.094Z,9.65
2023-03-24T21:57:18.149Z,9.62
2023-03-24T22:00:48.318Z,9.51
2023-03-24T22:04:00.034Z,9.50
2023-03-24T22:07:40.102Z,9.49
2023-03-24T22:11:00.020Z,9.42
2023-03-24T22:14:22.594Z,9.42
2023-03-24T22:17:55.402Z,9.39
2023-03-24T22:21:24.885Z,9.38
2023-03-24T22:24:43.478Z,9.35
2023-03-24T22:27:52.682Z,9.38
2023-03-24T22:31:42.360Z,9.37
2023-03-24T22:35:32.184Z,9.33
2023-03-24T22:39:05.141Z,9.28
2023-03-24T22:42:44.378Z,9.24
2023-03-24T22:46:17.026Z,9.23
2023-03-24T22:49:22.972Z,9.10
2023-03-24T22:52:55.711Z,9.09
2023-03-24T22:56:33.914Z,9.01
2023-03-24T23:00:22.590Z,8.91
2023-03-24T23:03:45.176Z,8.79
2023-03-24T23:07:22.780Z,8.79
2023-03-24T23:10:55.244Z,8.74
2023-03-24T23:13:54.433Z,8.65
2023-03-24T23:17:32.547Z,8.60
2023-03-24T23:21:14.614Z,8.55
2023-03-24T23:24:32.252Z,8.46
2023-03-24T23:28:16.163Z,8.41
2023-03-24T23:31:55.284Z,8.33
2023-03-24T23:34:55.584Z,8.29
2023-03-24T23:38:10.137Z,8.34
2023-03-24T23:41:45.400Z,8.35
2023-03-24T23:45:05.110Z,8.32
2023-03-24T23:48:47.401Z,8.29
2023-03-24T23:52:34.690Z,8.26
2023-03-24T23:56:06.772Z,8.16
2023-03-24T23:59:48.201Z,8.16
